Fresnal Canyon, Arizona
Current Conditions -  °F | °C
As of 7:48 AM on Thursday 23 Oct 2014 (Local Time) from KRYN Reporting Station
Clear Clear  
Wind Chill: 64°   Ceiling: Unl
Heat Index: 64°   Visibility: 10mi
Dew Point: 52°   Wind: 5mph
Humidity: 64%   Direction: 110°ESE
Pressure: 30.1"   Gusts: NA
Location:  32.0925°N, 112.129°W
Report Text: KRYN 231448Z 11004KT 10SM CLR 18/11 A3010
Loading
Personal Weather Stations






























Interactive Weather Map New forecast layout! Learn more

10-Day Weather Forecast

Advertisements
Track Severe Weather on mobile